ROMMA est une association bénévole à but non lucratif. Votre soutien est indispensable : ADHERER à ROMMA ou FAIRE un DON

Granges-lès-Beaumont - (26, Drôme)

Drôme des Collines (155 m)   Longitude: 04°58'E   Latitude: 45°03'N Station partenaire n°123
 

Détail journalier du     <<     >>

Température Precipitation Humidité Pression Vent Dir Rafale Dir. rafale Ensol.
Heure (°C) (mm) (%) (hPa) (km/h) (km/h) (min)
01:00 3.808410231SSE5SSE0
02:00 2.408510231N6N0
03:00 2.608710235N11ENE0
04:00 2.008810226ENE13ENE0
05:00 0.708810224ENE8ENE0
06:00 0.108910224ENE8ENE0
07:00 0.009010225ENE11ENE0
08:00 -0.209010235ENE11ENE0
09:00 2.309010243ENE11ENE40
10:00 4.908410244ENE13ENE20
11:00 8.707210242ENE5ENE20
12:00 10.706610242ENE8ESE40
13:00 13.106110236SSO18SSO50
14:00 13.905410227SSE19SSO60
15:00 14.305210225SSE15SE60
16:00 14.005210225ESE15E60
17:00 12.905610213SSE10SE60
18:00 12.4057102105SSE40
19:00 8.307210224N8N0
20:00 5.907510225N10N0
21:00 4.908010223N10E0
22:00 4.208310233N6N0
23:00 2.908310233N10N0
minuit 2.208510231N5N0

Graphique du 19-02-2019

 

Serveur OMMA